sensor_id;sensor_type;location;lat;lon;timestamp;pressure;altitude;pressure_sealevel;temperature;humidity
6198;BME280;3132;42.622;23.328;2023-05-08T00:01:29;92974.03;;;11.20;98.02
6198;BME280;3132;42.622;23.328;2023-05-08T00:03:55;92982.59;;;11.26;98.19
6198;BME280;3132;42.622;23.328;2023-05-08T00:06:20;92990.19;;;11.22;98.67
6198;BME280;3132;42.622;23.328;2023-05-08T00:08:46;92985.75;;;11.23;98.66
6198;BME280;3132;42.622;23.328;2023-05-08T00:11:11;92995.16;;;11.24;99.23
6198;BME280;3132;42.622;23.328;2023-05-08T00:13:37;92992.38;;;11.10;99.35
6198;BME280;3132;42.622;23.328;2023-05-08T00:16:02;92994.97;;;11.10;99.42
6198;BME280;3132;42.622;23.328;2023-05-08T00:18:27;92997.00;;;11.23;99.22
6198;BME280;3132;42.622;23.328;2023-05-08T00:20:53;93008.28;;;11.19;99.36
6198;BME280;3132;42.622;23.328;2023-05-08T00:23:18;93003.19;;;11.32;98.92
6198;BME280;3132;42.622;23.328;2023-05-08T00:25:46;93004.47;;;11.35;98.74
6198;BME280;3132;42.622;23.328;2023-05-08T00:28:11;93001.41;;;11.28;99.05
6198;BME280;3132;42.622;23.328;2023-05-08T00:30:37;93012.41;;;11.25;99.35
6198;BME280;3132;42.622;23.328;2023-05-08T00:33:02;93008.97;;;11.29;98.88
6198;BME280;3132;42.622;23.328;2023-05-08T00:35:28;93007.94;;;11.25;99.12
6198;BME280;3132;42.622;23.328;2023-05-08T00:37:54;93004.91;;;11.08;99.78
6198;BME280;3132;42.622;23.328;2023-05-08T00:40:19;92997.59;;;11.10;100.00
6198;BME280;3132;42.622;23.328;2023-05-08T00:42:45;92999.31;;;10.86;100.00
6198;BME280;3132;42.622;23.328;2023-05-08T00:45:10;93000.81;;;10.97;100.00
6198;BME280;3132;42.622;23.328;2023-05-08T00:47:37;93000.31;;;10.95;100.00
6198;BME280;3132;42.622;23.328;2023-05-08T00:50:03;92991.00;;;10.79;100.00
6198;BME280;3132;42.622;23.328;2023-05-08T00:52:30;92999.56;;;10.90;100.00
6198;BME280;3132;42.622;23.328;2023-05-08T00:54:57;93002.94;;;10.95;100.00
6198;BME280;3132;42.622;23.328;2023-05-08T00:57:23;92999.09;;;10.83;100.00
6198;BME280;3132;42.622;23.328;2023-05-08T00:59:49;92993.31;;;10.86;100.00
6198;BME280;3132;42.622;23.328;2023-05-08T01:02:15;93005.06;;;10.88;100.00
6198;BME280;3132;42.622;23.328;2023-05-08T01:04:41;93006.09;;;10.87;100.00
6198;BME280;3132;42.622;23.328;2023-05-08T01:07:09;93001.22;;;10.71;100.00
6198;BME280;3132;42.622;23.328;2023-05-08T01:09:35;93013.19;;;10.82;100.00
6198;BME280;3132;42.622;23.328;2023-05-08T01:15:04;93010.28;;;10.88;100.00
6198;BME280;3132;42.622;23.328;2023-05-08T01:23:43;93014.75;;;10.83;100.00
6198;BME280;3132;42.622;23.328;2023-05-08T01:26:41;93007.47;;;10.75;100.00
6198;BME280;3132;42.622;23.328;2023-05-08T01:37:56;93005.69;;;10.65;100.00
6198;BME280;3132;42.622;23.328;2023-05-08T01:40:33;93001.53;;;10.64;100.00
6198;BME280;3132;42.622;23.328;2023-05-08T01:43:09;93004.09;;;10.69;100.00
6198;BME280;3132;42.622;23.328;2023-05-08T01:45:38;93002.38;;;10.55;100.00
6198;BME280;3132;42.622;23.328;2023-05-08T01:48:08;92998.16;;;10.59;100.00
6198;BME280;3132;42.622;23.328;2023-05-08T01:50:39;92981.78;;;10.38;100.00
6198;BME280;3132;42.622;23.328;2023-05-08T01:53:12;92990.56;;;10.62;100.00
6198;BME280;3132;42.622;23.328;2023-05-08T01:55:42;92990.34;;;10.54;100.00
6198;BME280;3132;42.622;23.328;2023-05-08T01:58:09;92992.75;;;10.40;100.00
6198;BME280;3132;42.622;23.328;2023-05-08T02:00:38;92997.97;;;10.45;100.00
6198;BME280;3132;42.622;23.328;2023-05-08T02:03:05;92946.13;;;10.19;100.00
6198;BME280;3132;42.622;23.328;2023-05-08T02:05:35;92980.47;;;10.46;100.00
6198;BME280;3132;42.622;23.328;2023-05-08T02:08:01;93000.06;;;10.43;100.00
6198;BME280;3132;42.622;23.328;2023-05-08T02:10:28;92998.53;;;10.32;100.00
6198;BME280;3132;42.622;23.328;2023-05-08T02:12:55;93000.34;;;10.37;100.00
6198;BME280;3132;42.622;23.328;2023-05-08T02:15:21;93005.81;;;10.40;100.00
6198;BME280;3132;42.622;23.328;2023-05-08T02:17:49;92994.84;;;10.43;100.00
6198;BME280;3132;42.622;23.328;2023-05-08T02:20:15;92996.09;;;10.51;100.00
6198;BME280;3132;42.622;23.328;2023-05-08T02:22:44;93002.09;;;10.51;100.00
6198;BME280;3132;42.622;23.328;2023-05-08T02:25:14;93003.19;;;10.45;100.00
6198;BME280;3132;42.622;23.328;2023-05-08T02:27:47;92960.53;;;10.11;100.00
6198;BME280;3132;42.622;23.328;2023-05-08T02:30:15;93001.66;;;10.39;100.00
6198;BME280;3132;42.622;23.328;2023-05-08T02:32:46;93001.91;;;10.43;100.00
6198;BME280;3132;42.622;23.328;2023-05-08T02:35:17;92993.84;;;10.29;100.00
6198;BME280;3132;42.622;23.328;2023-05-08T02:37:44;92996.19;;;10.31;100.00
6198;BME280;3132;42.622;23.328;2023-05-08T02:40:11;93005.53;;;10.42;100.00
6198;BME280;3132;42.622;23.328;2023-05-08T02:42:38;93005.28;;;10.43;100.00
6198;BME280;3132;42.622;23.328;2023-05-08T02:45:04;93006.34;;;10.37;100.00
6198;BME280;3132;42.622;23.328;2023-05-08T02:48:00;92989.13;;;10.36;100.00
6198;BME280;3132;42.622;23.328;2023-05-08T02:53:34;93003.44;;;10.44;100.00
6198;BME280;3132;42.622;23.328;2023-05-08T02:56:17;93005.00;;;10.50;100.00
6198;BME280;3132;42.622;23.328;2023-05-08T02:58:54;93002.13;;;10.46;100.00
6198;BME280;3132;42.622;23.328;2023-05-08T03:01:28;93008.69;;;10.39;100.00
6198;BME280;3132;42.622;23.328;2023-05-08T03:04:03;93011.28;;;10.39;100.00
6198;BME280;3132;42.622;23.328;2023-05-08T03:06:35;93003.22;;;10.35;100.00
6198;BME280;3132;42.622;23.328;2023-05-08T03:09:04;93005.00;;;10.50;100.00
6198;BME280;3132;42.622;23.328;2023-05-08T03:11:38;92994.88;;;10.33;100.00
6198;BME280;3132;42.622;23.328;2023-05-08T03:14:09;92997.97;;;10.40;100.00
6198;BME280;3132;42.622;23.328;2023-05-08T03:16:35;93004.97;;;10.60;100.00
6198;BME280;3132;42.622;23.328;2023-05-08T03:19:06;93004.09;;;10.69;100.00
6198;BME280;3132;42.622;23.328;2023-05-08T03:21:35;93019.19;;;10.82;100.00
6198;BME280;3132;42.622;23.328;2023-05-08T03:24:02;93017.56;;;10.91;100.00
6198;BME280;3132;42.622;23.328;2023-05-08T03:26:29;93017.00;;;10.99;100.00
6198;BME280;3132;42.622;23.328;2023-05-08T03:28:55;93007.31;;;11.05;100.00
6198;BME280;3132;42.622;23.328;2023-05-08T03:31:22;93010.66;;;11.10;100.00
6198;BME280;3132;42.622;23.328;2023-05-08T03:33:53;93026.88;;;11.07;100.00
6198;BME280;3132;42.622;23.328;2023-05-08T03:36:19;93017.44;;;11.11;100.00
6198;BME280;3132;42.622;23.328;2023-05-08T03:38:45;93028.53;;;11.32;100.00
6198;BME280;3132;42.622;23.328;2023-05-08T03:41:11;93014.66;;;11.36;100.00
6198;BME280;3132;42.622;23.328;2023-05-08T03:43:37;93001.53;;;11.47;99.79
6198;BME280;3132;42.622;23.328;2023-05-08T03:46:04;93008.03;;;11.49;99.02
6198;BME280;3132;42.622;23.328;2023-05-08T03:48:32;93012.81;;;11.76;98.12
6198;BME280;3132;42.622;23.328;2023-05-08T03:51:01;93023.47;;;11.84;98.15
6198;BME280;3132;42.622;23.328;2023-05-08T03:53:28;93023.63;;;11.93;97.88
6198;BME280;3132;42.622;23.328;2023-05-08T03:55:56;93010.50;;;11.98;97.02
6198;BME280;3132;42.622;23.328;2023-05-08T03:58:31;93021.66;;;12.32;95.29
6198;BME280;3132;42.622;23.328;2023-05-08T04:01:10;93032.69;;;12.52;94.08
6198;BME280;3132;42.622;23.328;2023-05-08T04:06:23;93038.78;;;12.71;91.51
6198;BME280;3132;42.622;23.328;2023-05-08T04:09:07;93037.03;;;12.62;92.31
6198;BME280;3132;42.622;23.328;2023-05-08T04:11:47;93023.81;;;12.48;91.74
6198;BME280;3132;42.622;23.328;2023-05-08T04:14:19;93043.16;;;12.76;91.01
6198;BME280;3132;42.622;23.328;2023-05-08T04:16:51;93037.41;;;12.74;90.54
6198;BME280;3132;42.622;23.328;2023-05-08T04:19:23;93041.69;;;12.88;90.11
6198;BME280;3132;42.622;23.328;2023-05-08T04:21:53;93044.47;;;12.97;89.10
6198;BME280;3132;42.622;23.328;2023-05-08T04:24:22;93046.53;;;13.00;88.72
6198;BME280;3132;42.622;23.328;2023-05-08T04:26:49;93037.53;;;13.06;88.97
6198;BME280;3132;42.622;23.328;2023-05-08T04:29:16;93054.34;;;13.24;87.04
6198;BME280;3132;42.622;23.328;2023-05-08T04:31:42;93049.69;;;13.21;87.17
6198;BME280;3132;42.622;23.328;2023-05-08T04:34:08;93051.72;;;13.42;86.08
6198;BME280;3132;42.622;23.328;2023-05-08T04:36:34;93060.78;;;13.50;85.84
6198;BME280;3132;42.622;23.328;2023-05-08T04:38:59;93062.63;;;13.68;85.28
6198;BME280;3132;42.622;23.328;2023-05-08T04:41:25;93043.34;;;13.77;84.51
6198;BME280;3132;42.622;23.328;2023-05-08T04:43:52;93052.44;;;13.66;84.48
6198;BME280;3132;42.622;23.328;2023-05-08T04:46:18;93042.88;;;14.21;83.07
6198;BME280;3132;42.622;23.328;2023-05-08T04:48:43;93036.19;;;14.42;81.38
6198;BME280;3132;42.622;23.328;2023-05-08T04:51:08;93043.81;;;14.71;81.31
6198;BME280;3132;42.622;23.328;2023-05-08T04:53:34;93044.25;;;15.00;79.94
6198;BME280;3132;42.622;23.328;2023-05-08T04:55:59;93045.88;;;15.23;78.31
6198;BME280;3132;42.622;23.328;2023-05-08T04:58:24;93046.09;;;15.13;79.10
6198;BME280;3132;42.622;23.328;2023-05-08T05:00:50;93039.03;;;15.35;78.48
6198;BME280;3132;42.622;23.328;2023-05-08T05:03:15;93022.16;;;15.36;75.99
6198;BME280;3132;42.622;23.328;2023-05-08T05:05:41;93038.22;;;14.99;78.02
6198;BME280;3132;42.622;23.328;2023-05-08T05:08:06;93030.75;;;15.42;75.68
6198;BME280;3132;42.622;23.328;2023-05-08T05:10:32;93040.38;;;16.13;73.37
6198;BME280;3132;42.622;23.328;2023-05-08T05:12:57;93040.03;;;15.83;73.93
6198;BME280;3132;42.622;23.328;2023-05-08T05:15:22;93047.84;;;15.88;74.70
6198;BME280;3132;42.622;23.328;2023-05-08T05:17:48;93047.50;;;17.21;68.33
6198;BME280;3132;42.622;23.328;2023-05-08T05:20:13;93038.78;;;17.03;68.83
6198;BME280;3132;42.622;23.328;2023-05-08T05:22:39;93041.78;;;16.71;70.97
6198;BME280;3132;42.622;23.328;2023-05-08T05:25:05;93047.56;;;17.81;66.73
6198;BME280;3132;42.622;23.328;2023-05-08T05:27:33;93040.59;;;17.50;67.05
6198;BME280;3132;42.622;23.328;2023-05-08T05:29:59;93039.88;;;17.02;69.79
6198;BME280;3132;42.622;23.328;2023-05-08T05:32:24;93031.06;;;17.32;67.67
6198;BME280;3132;42.622;23.328;2023-05-08T05:34:50;93030.75;;;18.19;64.39
6198;BME280;3132;42.622;23.328;2023-05-08T05:37:16;93043.75;;;19.25;60.48
6198;BME280;3132;42.622;23.328;2023-05-08T05:39:42;93043.75;;;20.85;55.95
6198;BME280;3132;42.622;23.328;2023-05-08T05:42:07;93053.72;;;23.13;46.67
6198;BME280;3132;42.622;23.328;2023-05-08T05:44:32;93050.09;;;23.52;46.27
6198;BME280;3132;42.622;23.328;2023-05-08T05:46:58;93050.72;;;24.57;43.93
6198;BME280;3132;42.622;23.328;2023-05-08T05:49:23;93059.13;;;25.68;40.99
6198;BME280;3132;42.622;23.328;2023-05-08T05:51:48;93063.56;;;27.16;36.86
6198;BME280;3132;42.622;23.328;2023-05-08T05:54:14;93059.28;;;27.08;35.88
6198;BME280;3132;42.622;23.328;2023-05-08T05:56:40;93057.47;;;27.19;35.26
6198;BME280;3132;42.622;23.328;2023-05-08T05:59:05;93065.25;;;27.85;34.14
6198;BME280;3132;42.622;23.328;2023-05-08T06:01:30;93056.34;;;26.17;37.80
6198;BME280;3132;42.622;23.328;2023-05-08T06:03:56;93058.41;;;28.66;33.14
6198;BME280;3132;42.622;23.328;2023-05-08T06:06:21;93062.38;;;29.81;31.35
6198;BME280;3132;42.622;23.328;2023-05-08T06:08:47;93051.63;;;29.88;31.18
6198;BME280;3132;42.622;23.328;2023-05-08T06:11:12;93057.03;;;29.70;30.40
6198;BME280;3132;42.622;23.328;2023-05-08T06:13:39;93050.63;;;28.40;32.21
6198;BME280;3132;42.622;23.328;2023-05-08T06:16:06;93050.56;;;28.26;32.76
6198;BME280;3132;42.622;23.328;2023-05-08T06:18:32;93050.09;;;29.80;30.44
6198;BME280;3132;42.622;23.328;2023-05-08T06:20:58;93056.56;;;31.11;28.45
6198;BME280;3132;42.622;23.328;2023-05-08T06:23:24;93039.63;;;28.80;31.51
6198;BME280;3132;42.622;23.328;2023-05-08T06:25:50;93043.34;;;26.85;34.14
6198;BME280;3132;42.622;23.328;2023-05-08T06:28:15;93033.53;;;23.28;42.12
6198;BME280;3132;42.622;23.328;2023-05-08T06:30:40;93033.41;;;21.91;46.25
6198;BME280;3132;42.622;23.328;2023-05-08T06:33:07;93024.72;;;19.93;53.41
6198;BME280;3132;42.622;23.328;2023-05-08T06:35:33;93027.69;;;20.69;51.81
6198;BME280;3132;42.622;23.328;2023-05-08T06:37:58;93025.16;;;20.60;51.58
6198;BME280;3132;42.622;23.328;2023-05-08T06:40:24;93018.63;;;18.18;59.78
6198;BME280;3132;42.622;23.328;2023-05-08T06:42:49;93031.13;;;18.55;58.72
6198;BME280;3132;42.622;23.328;2023-05-08T06:45:14;93022.88;;;19.24;56.75
6198;BME280;3132;42.622;23.328;2023-05-08T06:47:40;93026.00;;;18.88;59.64
6198;BME280;3132;42.622;23.328;2023-05-08T06:50:05;93023.31;;;19.05;59.82
6198;BME280;3132;42.622;23.328;2023-05-08T06:52:31;93030.00;;;18.65;60.16
6198;BME280;3132;42.622;23.328;2023-05-08T06:54:57;93022.41;;;19.22;57.23
6198;BME280;3132;42.622;23.328;2023-05-08T06:57:22;93029.50;;;19.38;57.38
6198;BME280;3132;42.622;23.328;2023-05-08T06:59:50;93026.06;;;19.58;57.30
6198;BME280;3132;42.622;23.328;2023-05-08T07:02:15;93023.56;;;19.41;56.01
6198;BME280;3132;42.622;23.328;2023-05-08T07:04:42;93027.97;;;17.99;60.76
6198;BME280;3132;42.622;23.328;2023-05-08T07:07:08;93035.38;;;18.31;60.10
6198;BME280;3132;42.622;23.328;2023-05-08T07:09:33;93030.78;;;18.65;59.45
6198;BME280;3132;42.622;23.328;2023-05-08T07:11:58;93034.63;;;19.14;57.43
6198;BME280;3132;42.622;23.328;2023-05-08T07:14:24;93033.19;;;18.33;59.84
6198;BME280;3132;42.622;23.328;2023-05-08T07:16:49;93035.38;;;18.31;59.80
6198;BME280;3132;42.622;23.328;2023-05-08T07:19:15;93045.47;;;18.92;57.39
6198;BME280;3132;42.622;23.328;2023-05-08T07:21:40;93046.00;;;19.64;55.29
6198;BME280;3132;42.622;23.328;2023-05-08T07:24:06;93038.06;;;18.22;58.35
6198;BME280;3132;42.622;23.328;2023-05-08T07:26:31;93036.72;;;19.29;56.82
6198;BME280;3132;42.622;23.328;2023-05-08T07:28:56;93035.28;;;19.02;58.30
6198;BME280;3132;42.622;23.328;2023-05-08T07:31:22;93034.06;;;19.00;57.80
6198;BME280;3132;42.622;23.328;2023-05-08T07:33:47;93029.31;;;19.84;56.99
6198;BME280;3132;42.622;23.328;2023-05-08T07:36:13;93045.78;;;19.49;55.21
6198;BME280;3132;42.622;23.328;2023-05-08T07:38:38;93041.53;;;19.56;54.85
6198;BME280;3132;42.622;23.328;2023-05-08T07:41:03;93046.78;;;20.50;51.43
6198;BME280;3132;42.622;23.328;2023-05-08T07:43:30;93049.84;;;20.73;50.32
6198;BME280;3132;42.622;23.328;2023-05-08T07:45:55;93043.44;;;20.09;55.44
6198;BME280;3132;42.622;23.328;2023-05-08T07:48:21;93038.88;;;19.56;53.70
6198;BME280;3132;42.622;23.328;2023-05-08T07:50:48;93037.03;;;19.28;54.48
6198;BME280;3132;42.622;23.328;2023-05-08T07:53:14;93045.28;;;19.26;58.18
6198;BME280;3132;42.622;23.328;2023-05-08T07:55:39;93045.88;;;19.81;55.09
6198;BME280;3132;42.622;23.328;2023-05-08T07:58:05;93047.53;;;19.65;55.81
6198;BME280;3132;42.622;23.328;2023-05-08T08:00:31;93048.84;;;18.63;58.13
6198;BME280;3132;42.622;23.328;2023-05-08T08:02:56;93051.69;;;18.58;58.22
6198;BME280;3132;42.622;23.328;2023-05-08T08:05:21;93057.81;;;18.79;59.41
6198;BME280;3132;42.622;23.328;2023-05-08T08:07:47;93056.47;;;19.02;59.14
6198;BME280;3132;42.622;23.328;2023-05-08T08:10:12;93058.38;;;19.72;56.14
6198;BME280;3132;42.622;23.328;2023-05-08T08:12:38;93060.06;;;19.27;59.16
6198;BME280;3132;42.622;23.328;2023-05-08T08:15:04;93057.66;;;18.76;57.80
6198;BME280;3132;42.622;23.328;2023-05-08T08:17:29;93061.44;;;19.62;55.98
6198;BME280;3132;42.622;23.328;2023-05-08T08:19:55;93051.34;;;18.97;57.43
6198;BME280;3132;42.622;23.328;2023-05-08T08:22:21;93056.63;;;19.35;57.04
6198;BME280;3132;42.622;23.328;2023-05-08T08:24:46;93054.50;;;19.49;57.80
6198;BME280;3132;42.622;23.328;2023-05-08T08:27:12;93054.78;;;18.98;57.49
6198;BME280;3132;42.622;23.328;2023-05-08T08:29:37;93054.50;;;19.49;56.96
6198;BME280;3132;42.622;23.328;2023-05-08T08:32:03;93059.94;;;19.94;54.89
6198;BME280;3132;42.622;23.328;2023-05-08T08:34:28;93046.44;;;19.66;54.75
6198;BME280;3132;42.622;23.328;2023-05-08T08:36:54;93039.66;;;19.36;56.75
6198;BME280;3132;42.622;23.328;2023-05-08T08:39:19;93041.47;;;19.65;55.20
6198;BME280;3132;42.622;23.328;2023-05-08T08:41:45;93048.47;;;20.02;55.03
6198;BME280;3132;42.622;23.328;2023-05-08T08:44:10;93026.03;;;19.46;55.91
6198;BME280;3132;42.622;23.328;2023-05-08T08:46:38;93045.03;;;20.22;55.37
6198;BME280;3132;42.622;23.328;2023-05-08T08:49:08;93036.28;;;19.68;55.14
6198;BME280;3132;42.622;23.328;2023-05-08T08:51:46;93040.94;;;19.51;56.49
6198;BME280;3132;42.622;23.328;2023-05-08T08:54:20;93038.31;;;19.22;57.22
6198;BME280;3132;42.622;23.328;2023-05-08T08:56:47;93038.28;;;19.92;54.79
6198;BME280;3132;42.622;23.328;2023-05-08T08:59:14;93035.69;;;19.83;54.95
6198;BME280;3132;42.622;23.328;2023-05-08T09:01:43;93029.19;;;19.60;56.81
6198;BME280;3132;42.622;23.328;2023-05-08T09:04:08;93032.81;;;19.76;55.48
6198;BME280;3132;42.622;23.328;2023-05-08T09:06:35;93026.59;;;19.72;55.77
6198;BME280;3132;42.622;23.328;2023-05-08T09:09:02;93012.13;;;19.49;57.99
6198;BME280;3132;42.622;23.328;2023-05-08T09:11:27;93014.91;;;19.53;59.28
6198;BME280;3132;42.622;23.328;2023-05-08T09:13:57;93010.72;;;19.52;59.58
6198;BME280;3132;42.622;23.328;2023-05-08T09:16:24;93002.69;;;19.40;61.38
6198;BME280;3132;42.622;23.328;2023-05-08T09:18:50;93007.88;;;19.36;61.10
6198;BME280;3132;42.622;23.328;2023-05-08T09:21:15;92998.88;;;19.29;61.09
6198;BME280;3132;42.622;23.328;2023-05-08T09:23:58;93001.88;;;19.18;60.30
6198;BME280;3132;42.622;23.328;2023-05-08T09:26:35;92998.41;;;19.27;60.41
6198;BME280;3132;42.622;23.328;2023-05-08T09:29:17;92998.56;;;19.30;60.50
6198;BME280;3132;42.622;23.328;2023-05-08T09:31:46;92979.75;;;19.23;60.90
6198;BME280;3132;42.622;23.328;2023-05-08T09:34:26;92979.97;;;19.39;61.36
6198;BME280;3132;42.622;23.328;2023-05-08T09:36:53;92973.97;;;19.30;60.12
6198;BME280;3132;42.622;23.328;2023-05-08T09:39:23;92980.94;;;19.34;61.22
6198;BME280;3132;42.622;23.328;2023-05-08T09:41:59;92975.84;;;19.50;60.98
6198;BME280;3132;42.622;23.328;2023-05-08T09:44:25;92979.84;;;19.56;60.34
6198;BME280;3132;42.622;23.328;2023-05-08T09:46:50;92990.91;;;19.90;58.99
6198;BME280;3132;42.622;23.328;2023-05-08T09:49:17;92994.13;;;20.16;57.16
6198;BME280;3132;42.622;23.328;2023-05-08T09:51:51;93004.31;;;20.26;57.96
6198;BME280;3132;42.622;23.328;2023-05-08T09:54:18;93017.16;;;19.63;61.59
6198;BME280;3132;42.622;23.328;2023-05-08T09:56:44;93007.59;;;19.00;61.24
6198;BME280;3132;42.622;23.328;2023-05-08T09:59:27;93007.84;;;18.49;63.05
6198;BME280;3132;42.622;23.328;2023-05-08T10:01:53;93007.38;;;19.96;59.84
6198;BME280;3132;42.622;23.328;2023-05-08T10:04:36;93009.91;;;20.57;58.52
6198;BME280;3132;42.622;23.328;2023-05-08T10:07:02;93004.84;;;21.37;54.11
6198;BME280;3132;42.622;23.328;2023-05-08T10:09:28;93000.13;;;21.58;53.85
6198;BME280;3132;42.622;23.328;2023-05-08T10:11:53;93003.00;;;21.53;52.98
6198;BME280;3132;42.622;23.328;2023-05-08T10:14:21;93009.34;;;21.60;53.30
6198;BME280;3132;42.622;23.328;2023-05-08T10:16:50;92999.22;;;21.02;56.22
6198;BME280;3132;42.622;23.328;2023-05-08T10:19:21;92982.25;;;20.83;58.04
6198;BME280;3132;42.622;23.328;2023-05-08T10:21:48;92988.28;;;21.04;56.80
6198;BME280;3132;42.622;23.328;2023-05-08T10:24:31;92985.72;;;21.07;55.58
6198;BME280;3132;42.622;23.328;2023-05-08T10:27:04;92978.28;;;20.64;57.36
6198;BME280;3132;42.622;23.328;2023-05-08T10:32:18;92975.94;;;21.35;55.06
6198;BME280;3132;42.622;23.328;2023-05-08T10:34:46;92979.34;;;21.48;54.99
6198;BME280;3132;42.622;23.328;2023-05-08T10:37:13;92969.34;;;21.05;56.17
6198;BME280;3132;42.622;23.328;2023-05-08T10:39:41;92967.00;;;20.67;58.69
6198;BME280;3132;42.622;23.328;2023-05-08T10:42:08;92969.69;;;21.04;57.63
6198;BME280;3132;42.622;23.328;2023-05-08T10:44:33;92973.88;;;21.17;57.98
6198;BME280;3132;42.622;23.328;2023-05-08T10:52:46;92965.25;;;21.59;56.70
6198;BME280;3132;42.622;23.328;2023-05-08T10:55:31;92962.25;;;21.61;56.56
6198;BME280;3132;42.622;23.328;2023-05-08T10:58:14;92962.22;;;20.25;57.88
6198;BME280;3132;42.622;23.328;2023-05-08T11:03:47;92950.88;;;20.97;57.44
6198;BME280;3132;42.622;23.328;2023-05-08T11:06:15;92949.97;;;21.05;59.56
6198;BME280;3132;42.622;23.328;2023-05-08T11:08:50;92958.28;;;21.94;54.42
6198;BME280;3132;42.622;23.328;2023-05-08T11:11:29;92944.88;;;21.51;54.85
6198;BME280;3132;42.622;23.328;2023-05-08T11:19:20;92935.59;;;20.69;58.62
6198;BME280;3132;42.622;23.328;2023-05-08T11:24:46;92927.31;;;20.83;56.18
6198;BME280;3132;42.622;23.328;2023-05-08T11:27:13;92927.19;;;21.04;56.92
6198;BME280;3132;42.622;23.328;2023-05-08T11:29:39;92918.34;;;21.12;58.50
6198;BME280;3132;42.622;23.328;2023-05-08T11:32:04;92910.13;;;21.56;57.23
6198;BME280;3132;42.622;23.328;2023-05-08T11:37:08;92914.03;;;21.47;55.58
6198;BME280;3132;42.622;23.328;2023-05-08T11:39:34;92906.78;;;21.59;55.01
6198;BME280;3132;42.622;23.328;2023-05-08T11:42:32;92899.34;;;20.86;58.70
6198;BME280;3132;42.622;23.328;2023-05-08T11:45:08;92899.53;;;21.17;56.75
6198;BME280;3132;42.622;23.328;2023-05-08T11:47:39;92889.25;;;21.03;57.50
6198;BME280;3132;42.622;23.328;2023-05-08T11:50:07;92889.38;;;20.70;58.05
6198;BME280;3132;42.622;23.328;2023-05-08T11:52:39;92892.34;;;20.81;57.82
6198;BME280;3132;42.622;23.328;2023-05-08T11:55:06;92891.03;;;21.39;56.43
6198;BME280;3132;42.622;23.328;2023-05-08T11:57:32;92891.34;;;21.10;56.49
6198;BME280;3132;42.622;23.328;2023-05-08T12:00:05;92835.13;;;20.56;56.75
6198;BME280;3132;42.622;23.328;2023-05-08T12:02:47;92873.47;;;20.22;60.25
6198;BME280;3132;42.622;23.328;2023-05-08T12:05:13;92871.03;;;20.53;59.34
6198;BME280;3132;42.622;23.328;2023-05-08T12:07:42;92873.78;;;20.81;59.26
6198;BME280;3132;42.622;23.328;2023-05-08T12:10:08;92874.16;;;21.19;56.49
6198;BME280;3132;42.622;23.328;2023-05-08T12:12:42;92869.47;;;21.56;55.64
6198;BME280;3132;42.622;23.328;2023-05-08T12:15:09;92871.22;;;21.91;54.17
6198;BME280;3132;42.622;23.328;2023-05-08T12:17:35;92867.28;;;22.32;53.83
6198;BME280;3132;42.622;23.328;2023-05-08T12:20:18;92864.53;;;22.44;54.24
6198;BME280;3132;42.622;23.328;2023-05-08T12:22:51;92857.31;;;22.60;52.81
6198;BME280;3132;42.622;23.328;2023-05-08T12:25:17;92861.53;;;21.99;52.41
6198;BME280;3132;42.622;23.328;2023-05-08T12:27:43;92863.03;;;20.90;55.72
6198;BME280;3132;42.622;23.328;2023-05-08T12:30:11;92857.63;;;20.86;56.93
6198;BME280;3132;42.622;23.328;2023-05-08T12:32:39;92852.41;;;21.02;56.62
6198;BME280;3132;42.622;23.328;2023-05-08T12:35:08;92840.72;;;21.03;55.76
6198;BME280;3132;42.622;23.328;2023-05-08T12:37:35;92851.06;;;20.20;61.27
6198;BME280;3132;42.622;23.328;2023-05-08T12:40:01;92858.50;;;19.94;65.31
6198;BME280;3132;42.622;23.328;2023-05-08T12:45:37;92863.19;;;19.32;70.40
6198;BME280;3132;42.622;23.328;2023-05-08T12:48:08;92861.78;;;19.34;67.59
6198;BME280;3132;42.622;23.328;2023-05-08T12:50:36;92860.09;;;19.50;68.35
6198;BME280;3132;42.622;23.328;2023-05-08T12:53:08;92843.59;;;19.89;68.36
6198;BME280;3132;42.622;23.328;2023-05-08T12:55:36;92848.22;;;19.80;67.91
6198;BME280;3132;42.622;23.328;2023-05-08T13:00:43;92844.09;;;20.15;67.20
6198;BME280;3132;42.622;23.328;2023-05-08T13:03:10;92846.91;;;19.86;63.10
6198;BME280;3132;42.622;23.328;2023-05-08T13:05:40;92831.25;;;19.93;63.24
6198;BME280;3132;42.622;23.328;2023-05-08T13:08:07;92842.09;;;20.24;59.72
6198;BME280;3132;42.622;23.328;2023-05-08T13:10:49;92836.56;;;20.17;62.47
6198;BME280;3132;42.622;23.328;2023-05-08T13:13:22;92834.13;;;20.12;62.72
6198;BME280;3132;42.622;23.328;2023-05-08T13:15:49;92839.44;;;20.36;60.84
6198;BME280;3132;42.622;23.328;2023-05-08T13:18:16;92838.31;;;20.01;61.35
6198;BME280;3132;42.622;23.328;2023-05-08T13:20:41;92830.25;;;20.10;61.59
6198;BME280;3132;42.622;23.328;2023-05-08T13:23:08;92846.59;;;20.12;62.12
6198;BME280;3132;42.622;23.328;2023-05-08T13:25:35;92861.72;;;20.11;62.84
6198;BME280;3132;42.622;23.328;2023-05-08T13:28:00;92858.06;;;19.92;63.44
6198;BME280;3132;42.622;23.328;2023-05-08T13:30:26;92862.59;;;19.79;63.50
6198;BME280;3132;42.622;23.328;2023-05-08T13:32:52;92867.69;;;19.52;65.56
6198;BME280;3132;42.622;23.328;2023-05-08T13:35:25;92859.72;;;18.98;69.69
6198;BME280;3132;42.622;23.328;2023-05-08T13:37:53;92856.19;;;18.74;68.74
6198;BME280;3132;42.622;23.328;2023-05-08T13:40:19;92866.00;;;18.44;70.28
6198;BME280;3132;42.622;23.328;2023-05-08T13:42:44;92861.22;;;18.38;70.91
6198;BME280;3132;42.622;23.328;2023-05-08T13:45:10;92870.84;;;18.34;73.76
6198;BME280;3132;42.622;23.328;2023-05-08T13:47:39;92872.91;;;18.28;73.27
6198;BME280;3132;42.622;23.328;2023-05-08T13:50:05;92884.78;;;18.14;71.82
6198;BME280;3132;42.622;23.328;2023-05-08T13:52:31;92886.16;;;18.20;71.77
6198;BME280;3132;42.622;23.328;2023-05-08T13:54:56;92893.50;;;18.06;72.36
6198;BME280;3132;42.622;23.328;2023-05-08T13:57:22;92901.44;;;18.06;72.81
6198;BME280;3132;42.622;23.328;2023-05-08T13:59:49;92912.00;;;18.06;73.52
6198;BME280;3132;42.622;23.328;2023-05-08T14:02:14;92893.47;;;17.77;76.27
6198;BME280;3132;42.622;23.328;2023-05-08T14:04:39;92902.72;;;18.00;74.48
6198;BME280;3132;42.622;23.328;2023-05-08T14:07:05;92904.59;;;17.91;75.40